Track Кудряшов Максим

Time Latitude Longitude Accuracy (66% radius in meters) Altitude (meters) Speed (km/hour) Bearing (degrees) Battery (%) GPS flag
06:48:37 57.204867 60.121415 3.2160000801086 326.55035400391 2.4500000476837 227.5 64 1 delete
06:48:33 57.204889 60.121462 3.2160000801086 326.54541015625 0 0 64 1 delete
06:48:22 57.204892 60.121479 3.2160000801086 326.84912109375 0 0 64 1 delete
06:48:12 57.204884 60.121513 3.2160000801086 325.91564941406 0 0 64 1 delete
06:48:00 57.204892 60.121486 3.2160000801086 324.43878173828 1.3600000143051 293.20001220703 64 1 delete
06:47:56 57.204834 60.121579 5.3600001335144 317.06335449219 1.6799999475479 316.29998779297 64 1 delete
06:47:49 57.204729 60.121700 17.152000427246 300.77185058594 1.460000038147 62.400001525879 64 1 delete
06:47:42 57.204756 60.121726 30.016000747681 302.19390869141 1.3899999856949 326.70001220703 64 1 delete
06:47:37 57.204715 60.121683 35.375999450684 304.36352539062 1.2599999904633 66.099998474121 64 1 delete
06:47:28 57.204701 60.121629 27.872001647949 308.54626464844 0 0 64 1 delete
06:47:17 57.204701 60.121629 20.368000030518 301.17578125 0 0 64 1 delete
06:47:06 57.204701 60.121629 20.368000030518 302.37512207031 0 0 64 1 delete
06:46:55 57.204701 60.121629 20.368000030518 306.19818115234 0 0 64 1 delete
06:46:45 57.204705 60.121631 10.720000267029 306.30712890625 0 0 64 1 delete
06:46:34 57.204705 60.121631 11.791999816895 299.82556152344 0 0 64 1 delete
06:46:23 57.204705 60.121631 11.791999816895 299.82562255859 0 0 64 1 delete
06:46:13 57.204705 60.121631 11.791999816895 299.82385253906 0 0 64 1 delete
06:46:02 57.204705 60.121631 11.791999816895 299.82458496094 0 0 64 1 delete
06:45:51 57.204705 60.121631 10.720000267029 299.81665039062 0 0 64 1 delete
06:45:40 57.204705 60.121631 10.720000267029 299.81628417969 0 0 64 1 delete
06:45:30 57.204705 60.121631 11.791999816895 299.81866455078 0 0 64 1 delete
06:45:19 57.204705 60.121631 11.791999816895 299.84460449219 0 0 64 1 delete
06:45:08 57.204705 60.121631 12.864000320435 300.07727050781 0 0 64 1 delete
06:44:57 57.204653 60.121662 13.936000823975 298.45092773438 0.72000002861023 322 64 1 delete
06:44:55 57.204643 60.121700 15.00800037384 302.40173339844 0.55000001192093 281.5 64 1 delete
06:44:48 57.204689 60.121843 22.512001037598 307.5341796875 0.8299999833107 140.10000610352 64 1 delete
06:44:46 57.204704 60.121805 21.440000534058 308.02978515625 0.73000001907349 94.300003051758 64 1 delete
06:44:14 57.204687 60.121682 13.936000823975 309.64788818359 0 0 64 1 delete
06:44:04 57.204687 60.121682 9.6480007171631 303.40631103516 0 0 64 1 delete
06:43:53 57.204688 60.121682 9.6480007171631 303.31958007812 0 0 64 1 delete
06:43:42 57.204690 60.121681 9.6480007171631 303.17614746094 0 0 64 1 delete
06:43:31 57.204691 60.121681 9.6480007171631 303.13098144531 0 0 64 1 delete
06:43:20 57.204691 60.121682 9.6480007171631 303.34783935547 0 0 64 1 delete
06:43:10 57.204691 60.121681 9.6480007171631 306.22546386719 0 0 64 1 delete
06:42:59 57.204692 60.121681 9.6480007171631 302.70526123047 0 0 64 1 delete
06:42:48 57.204692 60.121681 9.6480007171631 302.66430664062 0 0 64 1 delete
06:42:38 57.204693 60.121681 9.6480007171631 302.55584716797 0 0 64 1 delete
06:42:27 57.204694 60.121681 9.6480007171631 302.40240478516 0 0 64 1 delete
06:42:17 57.204696 60.121680 9.6480007171631 302.21881103516 0 0 64 1 delete
06:42:06 57.204698 60.121680 9.6480007171631 302.08996582031 0 0 64 1 delete
06:41:55 57.204699 60.121681 4.2880001068115 302.01208496094 0 0 64 1 delete
06:41:44 57.204701 60.121681 5.3600001335144 301.97131347656 0 0 64 1 delete
06:41:34 57.204707 60.121680 5.3600001335144 302.33154296875 0 0 64 1 delete
06:41:23 57.204713 60.121680 9.6480007171631 302.26794433594 0 0 64 1 delete
06:41:13 57.204728 60.121683 9.6480007171631 300.4453125 0 0 64 1 delete
06:41:07 57.204734 60.121697 24.656000137329 299.62194824219 0 0 64 1 delete